sensor_id;sensor_type;location;lat;lon;timestamp;P1;durP1;ratioP1;P2;durP2;ratioP2
21601;SDS011;10963;50.934;4.668;2022-11-15T00:00:54;28.27;;;17.67;;
21601;SDS011;10963;50.934;4.668;2022-11-15T00:03:24;34.23;;;20.03;;
21601;SDS011;10963;50.934;4.668;2022-11-15T00:05:51;39.07;;;21.37;;
21601;SDS011;10963;50.934;4.668;2022-11-15T00:08:17;36.80;;;20.93;;
21601;SDS011;10963;50.934;4.668;2022-11-15T00:10:55;38.50;;;21.63;;
21601;SDS011;10963;50.934;4.668;2022-11-15T00:13:22;34.97;;;18.90;;
21601;SDS011;10963;50.934;4.668;2022-11-15T00:15:51;29.73;;;17.93;;
21601;SDS011;10963;50.934;4.668;2022-11-15T00:18:17;37.00;;;19.33;;
21601;SDS011;10963;50.934;4.668;2022-11-15T00:20:44;37.23;;;19.83;;
21601;SDS011;10963;50.934;4.668;2022-11-15T00:23:11;32.50;;;18.33;;
21601;SDS011;10963;50.934;4.668;2022-11-15T00:25:37;38.03;;;20.77;;
21601;SDS011;10963;50.934;4.668;2022-11-15T00:28:06;35.07;;;19.57;;
21601;SDS011;10963;50.934;4.668;2022-11-15T00:30:33;32.73;;;19.97;;
21601;SDS011;10963;50.934;4.668;2022-11-15T00:33:05;28.23;;;18.20;;
21601;SDS011;10963;50.934;4.668;2022-11-15T00:35:32;41.67;;;21.90;;
21601;SDS011;10963;50.934;4.668;2022-11-15T00:37:59;31.27;;;19.23;;
21601;SDS011;10963;50.934;4.668;2022-11-15T00:40:28;33.17;;;18.83;;
21601;SDS011;10963;50.934;4.668;2022-11-15T00:42:57;30.43;;;18.33;;
21601;SDS011;10963;50.934;4.668;2022-11-15T00:45:27;31.63;;;18.77;;
21601;SDS011;10963;50.934;4.668;2022-11-15T00:47:55;34.53;;;19.90;;
21601;SDS011;10963;50.934;4.668;2022-11-15T00:50:21;31.63;;;18.90;;
21601;SDS011;10963;50.934;4.668;2022-11-15T00:52:49;32.00;;;19.23;;
21601;SDS011;10963;50.934;4.668;2022-11-15T00:55:18;40.90;;;20.07;;
21601;SDS011;10963;50.934;4.668;2022-11-15T00:57:46;33.23;;;19.63;;
21601;SDS011;10963;50.934;4.668;2022-11-15T01:00:12;34.80;;;18.93;;
21601;SDS011;10963;50.934;4.668;2022-11-15T01:02:39;31.33;;;18.90;;
21601;SDS011;10963;50.934;4.668;2022-11-15T01:05:04;33.03;;;19.23;;
21601;SDS011;10963;50.934;4.668;2022-11-15T01:07:33;32.93;;;18.97;;
21601;SDS011;10963;50.934;4.668;2022-11-15T01:09:59;32.13;;;19.30;;
21601;SDS011;10963;50.934;4.668;2022-11-15T01:12:27;31.57;;;18.40;;
21601;SDS011;10963;50.934;4.668;2022-11-15T01:14:55;36.47;;;20.90;;
21601;SDS011;10963;50.934;4.668;2022-11-15T01:17:23;35.50;;;20.63;;
21601;SDS011;10963;50.934;4.668;2022-11-15T01:19:52;33.63;;;18.57;;
21601;SDS011;10963;50.934;4.668;2022-11-15T01:22:23;32.70;;;19.20;;
21601;SDS011;10963;50.934;4.668;2022-11-15T01:24:51;37.97;;;20.33;;
21601;SDS011;10963;50.934;4.668;2022-11-15T01:27:17;34.57;;;20.07;;
21601;SDS011;10963;50.934;4.668;2022-11-15T01:29:45;33.63;;;19.77;;
21601;SDS011;10963;50.934;4.668;2022-11-15T01:32:13;34.00;;;19.80;;
21601;SDS011;10963;50.934;4.668;2022-11-15T01:34:39;31.57;;;19.57;;
21601;SDS011;10963;50.934;4.668;2022-11-15T01:37:09;33.57;;;19.30;;
21601;SDS011;10963;50.934;4.668;2022-11-15T01:39:39;34.73;;;20.63;;
21601;SDS011;10963;50.934;4.668;2022-11-15T01:42:05;36.33;;;21.00;;
21601;SDS011;10963;50.934;4.668;2022-11-15T01:47:03;37.80;;;21.03;;
21601;SDS011;10963;50.934;4.668;2022-11-15T01:49:33;43.23;;;22.00;;
21601;SDS011;10963;50.934;4.668;2022-11-15T01:52:03;36.30;;;20.80;;
21601;SDS011;10963;50.934;4.668;2022-11-15T01:54:32;37.50;;;21.90;;
21601;SDS011;10963;50.934;4.668;2022-11-15T01:57:01;45.17;;;21.43;;
21601;SDS011;10963;50.934;4.668;2022-11-15T01:59:37;35.27;;;20.50;;
21601;SDS011;10963;50.934;4.668;2022-11-15T02:02:07;40.80;;;21.83;;
21601;SDS011;10963;50.934;4.668;2022-11-15T02:04:36;37.53;;;21.43;;
21601;SDS011;10963;50.934;4.668;2022-11-15T02:07:09;45.50;;;22.43;;
21601;SDS011;10963;50.934;4.668;2022-11-15T02:09:38;39.70;;;22.53;;
21601;SDS011;10963;50.934;4.668;2022-11-15T02:12:07;38.33;;;21.93;;
21601;SDS011;10963;50.934;4.668;2022-11-15T02:14:38;38.27;;;21.90;;
21601;SDS011;10963;50.934;4.668;2022-11-15T02:17:11;37.60;;;21.53;;
21601;SDS011;10963;50.934;4.668;2022-11-15T02:20:14;34.37;;;20.60;;
21601;SDS011;10963;50.934;4.668;2022-11-15T02:26:04;40.33;;;22.27;;
21601;SDS011;10963;50.934;4.668;2022-11-15T02:29:06;36.27;;;20.63;;
21601;SDS011;10963;50.934;4.668;2022-11-15T02:42:04;36.03;;;20.43;;
21601;SDS011;10963;50.934;4.668;2022-11-15T02:44:56;41.40;;;21.03;;
21601;SDS011;10963;50.934;4.668;2022-11-15T02:47:29;31.63;;;19.47;;
21601;SDS011;10963;50.934;4.668;2022-11-15T02:50:03;28.43;;;18.23;;
21601;SDS011;10963;50.934;4.668;2022-11-15T02:52:37;36.57;;;19.57;;
21601;SDS011;10963;50.934;4.668;2022-11-15T02:55:25;32.47;;;19.67;;
21601;SDS011;10963;50.934;4.668;2022-11-15T03:00:18;33.13;;;19.53;;
21601;SDS011;10963;50.934;4.668;2022-11-15T03:05:29;35.33;;;20.07;;
21601;SDS011;10963;50.934;4.668;2022-11-15T03:08:19;31.27;;;19.23;;
21601;SDS011;10963;50.934;4.668;2022-11-15T03:11:12;31.50;;;19.17;;
21601;SDS011;10963;50.934;4.668;2022-11-15T03:16:40;32.40;;;19.63;;
21601;SDS011;10963;50.934;4.668;2022-11-15T03:22:11;33.30;;;18.67;;
21601;SDS011;10963;50.934;4.668;2022-11-15T03:24:43;35.73;;;19.03;;
21601;SDS011;10963;50.934;4.668;2022-11-15T03:27:12;35.93;;;19.27;;
21601;SDS011;10963;50.934;4.668;2022-11-15T03:29:51;32.13;;;20.30;;
21601;SDS011;10963;50.934;4.668;2022-11-15T03:32:25;34.30;;;19.20;;
21601;SDS011;10963;50.934;4.668;2022-11-15T03:35:01;33.70;;;19.97;;
21601;SDS011;10963;50.934;4.668;2022-11-15T03:37:36;35.83;;;20.10;;
21601;SDS011;10963;50.934;4.668;2022-11-15T03:40:10;32.13;;;18.93;;
21601;SDS011;10963;50.934;4.668;2022-11-15T03:42:48;33.93;;;19.23;;
21601;SDS011;10963;50.934;4.668;2022-11-15T03:45:59;31.13;;;19.40;;
21601;SDS011;10963;50.934;4.668;2022-11-15T03:48:30;31.37;;;19.87;;
21601;SDS011;10963;50.934;4.668;2022-11-15T03:51:04;34.43;;;20.17;;
21601;SDS011;10963;50.934;4.668;2022-11-15T03:53:33;32.17;;;20.53;;
21601;SDS011;10963;50.934;4.668;2022-11-15T03:55:59;34.87;;;19.30;;
21601;SDS011;10963;50.934;4.668;2022-11-15T03:58:25;33.67;;;19.00;;
21601;SDS011;10963;50.934;4.668;2022-11-15T04:00:51;29.57;;;18.67;;
21601;SDS011;10963;50.934;4.668;2022-11-15T04:03:21;33.80;;;18.57;;
21601;SDS011;10963;50.934;4.668;2022-11-15T04:05:48;33.93;;;19.13;;
21601;SDS011;10963;50.934;4.668;2022-11-15T04:08:17;32.50;;;19.57;;
21601;SDS011;10963;50.934;4.668;2022-11-15T04:10:45;33.50;;;18.50;;
21601;SDS011;10963;50.934;4.668;2022-11-15T04:13:17;29.10;;;18.03;;
21601;SDS011;10963;50.934;4.668;2022-11-15T04:15:46;25.70;;;15.17;;
21601;SDS011;10963;50.934;4.668;2022-11-15T04:18:13;26.60;;;16.00;;
21601;SDS011;10963;50.934;4.668;2022-11-15T04:20:41;27.67;;;16.47;;
21601;SDS011;10963;50.934;4.668;2022-11-15T04:23:25;31.23;;;17.37;;
21601;SDS011;10963;50.934;4.668;2022-11-15T04:26:14;26.60;;;14.97;;
21601;SDS011;10963;50.934;4.668;2022-11-15T04:28:43;26.33;;;15.03;;
21601;SDS011;10963;50.934;4.668;2022-11-15T04:31:27;21.77;;;12.73;;
21601;SDS011;10963;50.934;4.668;2022-11-15T04:33:53;24.53;;;13.17;;
21601;SDS011;10963;50.934;4.668;2022-11-15T04:36:22;19.80;;;11.50;;
21601;SDS011;10963;50.934;4.668;2022-11-15T04:39:09;19.57;;;11.27;;
21601;SDS011;10963;50.934;4.668;2022-11-15T04:41:37;23.83;;;11.80;;
21601;SDS011;10963;50.934;4.668;2022-11-15T04:44:02;24.70;;;11.47;;
21601;SDS011;10963;50.934;4.668;2022-11-15T04:46:28;20.47;;;10.90;;
21601;SDS011;10963;50.934;4.668;2022-11-15T04:48:56;20.13;;;10.77;;
21601;SDS011;10963;50.934;4.668;2022-11-15T04:51:21;16.97;;;10.73;;
21601;SDS011;10963;50.934;4.668;2022-11-15T04:53:50;19.33;;;11.13;;
21601;SDS011;10963;50.934;4.668;2022-11-15T04:56:20;22.13;;;12.37;;
21601;SDS011;10963;50.934;4.668;2022-11-15T04:58:48;20.70;;;12.57;;
21601;SDS011;10963;50.934;4.668;2022-11-15T05:01:17;23.17;;;12.97;;
21601;SDS011;10963;50.934;4.668;2022-11-15T05:03:43;18.13;;;12.30;;
21601;SDS011;10963;50.934;4.668;2022-11-15T05:06:29;19.40;;;11.93;;
21601;SDS011;10963;50.934;4.668;2022-11-15T05:08:57;23.03;;;11.87;;
21601;SDS011;10963;50.934;4.668;2022-11-15T05:11:23;17.70;;;11.57;;
21601;SDS011;10963;50.934;4.668;2022-11-15T05:13:49;23.13;;;10.67;;
21601;SDS011;10963;50.934;4.668;2022-11-15T05:16:15;22.63;;;10.00;;
21601;SDS011;10963;50.934;4.668;2022-11-15T05:18:44;16.13;;;9.03;;
21601;SDS011;10963;50.934;4.668;2022-11-15T05:21:13;18.27;;;9.70;;
21601;SDS011;10963;50.934;4.668;2022-11-15T05:23:42;17.10;;;9.13;;
21601;SDS011;10963;50.934;4.668;2022-11-15T05:26:09;14.00;;;8.60;;
21601;SDS011;10963;50.934;4.668;2022-11-15T05:28:35;13.60;;;8.57;;
21601;SDS011;10963;50.934;4.668;2022-11-15T05:31:07;15.43;;;8.47;;
21601;SDS011;10963;50.934;4.668;2022-11-15T05:33:39;13.17;;;8.03;;
21601;SDS011;10963;50.934;4.668;2022-11-15T05:36:09;14.67;;;7.40;;
21601;SDS011;10963;50.934;4.668;2022-11-15T05:39:05;14.33;;;8.43;;
21601;SDS011;10963;50.934;4.668;2022-11-15T05:44:09;18.13;;;8.77;;
21601;SDS011;10963;50.934;4.668;2022-11-15T05:46:39;11.83;;;8.10;;
21601;SDS011;10963;50.934;4.668;2022-11-15T05:49:11;14.57;;;8.37;;
21601;SDS011;10963;50.934;4.668;2022-11-15T05:51:43;18.77;;;7.70;;
21601;SDS011;10963;50.934;4.668;2022-11-15T05:54:13;19.20;;;8.10;;
21601;SDS011;10963;50.934;4.668;2022-11-15T05:56:41;14.97;;;8.07;;
21601;SDS011;10963;50.934;4.668;2022-11-15T05:59:10;13.27;;;8.00;;
21601;SDS011;10963;50.934;4.668;2022-11-15T06:01:36;14.93;;;8.20;;
21601;SDS011;10963;50.934;4.668;2022-11-15T06:04:02;15.73;;;8.60;;
21601;SDS011;10963;50.934;4.668;2022-11-15T06:06:33;14.43;;;8.47;;
21601;SDS011;10963;50.934;4.668;2022-11-15T06:09:01;16.47;;;8.40;;
21601;SDS011;10963;50.934;4.668;2022-11-15T06:11:26;13.57;;;7.60;;
21601;SDS011;10963;50.934;4.668;2022-11-15T06:13:52;18.47;;;9.00;;
21601;SDS011;10963;50.934;4.668;2022-11-15T06:16:18;15.33;;;7.83;;
21601;SDS011;10963;50.934;4.668;2022-11-15T06:18:44;16.53;;;8.43;;
21601;SDS011;10963;50.934;4.668;2022-11-15T06:21:09;16.60;;;9.03;;
21601;SDS011;10963;50.934;4.668;2022-11-15T06:23:35;16.33;;;7.90;;
21601;SDS011;10963;50.934;4.668;2022-11-15T06:26:03;16.30;;;9.50;;
21601;SDS011;10963;50.934;4.668;2022-11-15T06:28:32;14.90;;;8.37;;
21601;SDS011;10963;50.934;4.668;2022-11-15T06:31:02;20.67;;;9.97;;
21601;SDS011;10963;50.934;4.668;2022-11-15T06:33:35;19.77;;;9.70;;
21601;SDS011;10963;50.934;4.668;2022-11-15T06:36:09;17.20;;;9.20;;
21601;SDS011;10963;50.934;4.668;2022-11-15T06:38:38;19.00;;;9.63;;
21601;SDS011;10963;50.934;4.668;2022-11-15T06:41:08;17.70;;;9.80;;
21601;SDS011;10963;50.934;4.668;2022-11-15T06:43:35;18.27;;;9.50;;
21601;SDS011;10963;50.934;4.668;2022-11-15T06:46:02;23.50;;;10.47;;
21601;SDS011;10963;50.934;4.668;2022-11-15T06:48:29;19.97;;;10.17;;
21601;SDS011;10963;50.934;4.668;2022-11-15T06:51:01;14.50;;;9.63;;
21601;SDS011;10963;50.934;4.668;2022-11-15T06:53:31;20.70;;;10.77;;
21601;SDS011;10963;50.934;4.668;2022-11-15T06:56:00;15.87;;;9.50;;
21601;SDS011;10963;50.934;4.668;2022-11-15T06:58:29;16.10;;;9.93;;
21601;SDS011;10963;50.934;4.668;2022-11-15T07:00:59;19.67;;;9.80;;
21601;SDS011;10963;50.934;4.668;2022-11-15T07:03:26;16.03;;;9.83;;
21601;SDS011;10963;50.934;4.668;2022-11-15T07:05:57;24.50;;;10.60;;
21601;SDS011;10963;50.934;4.668;2022-11-15T07:08:26;29.90;;;12.13;;
21601;SDS011;10963;50.934;4.668;2022-11-15T07:10:53;20.90;;;12.50;;
21601;SDS011;10963;50.934;4.668;2022-11-15T07:13:19;17.27;;;9.37;;
21601;SDS011;10963;50.934;4.668;2022-11-15T07:15:48;23.07;;;11.97;;
21601;SDS011;10963;50.934;4.668;2022-11-15T07:18:19;22.23;;;12.53;;
21601;SDS011;10963;50.934;4.668;2022-11-15T07:20:45;23.57;;;10.23;;
21601;SDS011;10963;50.934;4.668;2022-11-15T07:23:13;17.27;;;10.03;;
21601;SDS011;10963;50.934;4.668;2022-11-15T07:25:39;19.03;;;9.20;;
21601;SDS011;10963;50.934;4.668;2022-11-15T07:28:07;16.47;;;9.97;;
21601;SDS011;10963;50.934;4.668;2022-11-15T07:30:33;12.53;;;8.93;;
21601;SDS011;10963;50.934;4.668;2022-11-15T07:32:59;14.60;;;8.20;;
21601;SDS011;10963;50.934;4.668;2022-11-15T07:35:27;15.70;;;9.70;;
21601;SDS011;10963;50.934;4.668;2022-11-15T07:37:59;15.70;;;9.10;;
21601;SDS011;10963;50.934;4.668;2022-11-15T07:40:27;15.63;;;9.17;;
21601;SDS011;10963;50.934;4.668;2022-11-15T07:43:02;15.13;;;8.60;;
21601;SDS011;10963;50.934;4.668;2022-11-15T07:45:32;20.53;;;9.73;;
21601;SDS011;10963;50.934;4.668;2022-11-15T07:48:01;14.20;;;9.00;;
21601;SDS011;10963;50.934;4.668;2022-11-15T07:50:29;15.17;;;8.53;;
21601;SDS011;10963;50.934;4.668;2022-11-15T07:52:57;12.90;;;8.40;;
21601;SDS011;10963;50.934;4.668;2022-11-15T07:55:24;18.07;;;8.37;;
21601;SDS011;10963;50.934;4.668;2022-11-15T07:57:59;12.37;;;6.97;;
21601;SDS011;10963;50.934;4.668;2022-11-15T08:00:31;10.17;;;6.60;;
21601;SDS011;10963;50.934;4.668;2022-11-15T08:03:11;12.83;;;6.90;;
21601;SDS011;10963;50.934;4.668;2022-11-15T08:05:39;8.67;;;6.00;;
21601;SDS011;10963;50.934;4.668;2022-11-15T08:08:11;9.17;;;5.77;;
21601;SDS011;10963;50.934;4.668;2022-11-15T08:10:40;8.00;;;5.47;;
21601;SDS011;10963;50.934;4.668;2022-11-15T08:13:07;8.57;;;5.40;;
21601;SDS011;10963;50.934;4.668;2022-11-15T08:15:37;7.53;;;5.00;;
21601;SDS011;10963;50.934;4.668;2022-11-15T08:18:10;7.13;;;4.47;;
21601;SDS011;10963;50.934;4.668;2022-11-15T08:20:40;8.70;;;4.93;;
21601;SDS011;10963;50.934;4.668;2022-11-15T08:23:11;12.27;;;4.57;;
21601;SDS011;10963;50.934;4.668;2022-11-15T08:25:38;10.30;;;4.70;;
21601;SDS011;10963;50.934;4.668;2022-11-15T08:28:06;7.70;;;4.43;;
21601;SDS011;10963;50.934;4.668;2022-11-15T08:30:36;9.60;;;4.70;;
21601;SDS011;10963;50.934;4.668;2022-11-15T08:33:03;5.87;;;4.30;;
21601;SDS011;10963;50.934;4.668;2022-11-15T08:35:32;7.10;;;4.37;;
21601;SDS011;10963;50.934;4.668;2022-11-15T08:37:57;10.90;;;4.53;;
21601;SDS011;10963;50.934;4.668;2022-11-15T08:40:23;6.17;;;3.70;;
21601;SDS011;10963;50.934;4.668;2022-11-15T08:42:49;6.63;;;4.17;;
21601;SDS011;10963;50.934;4.668;2022-11-15T08:45:17;5.30;;;3.23;;
21601;SDS011;10963;50.934;4.668;2022-11-15T08:47:44;4.57;;;3.10;;
21601;SDS011;10963;50.934;4.668;2022-11-15T08:50:13;7.57;;;2.70;;
21601;SDS011;10963;50.934;4.668;2022-11-15T08:52:41;6.77;;;2.70;;
21601;SDS011;10963;50.934;4.668;2022-11-15T08:55:07;4.33;;;2.63;;
21601;SDS011;10963;50.934;4.668;2022-11-15T08:57:35;6.03;;;2.40;;
21601;SDS011;10963;50.934;4.668;2022-11-15T09:00:01;4.80;;;2.27;;
21601;SDS011;10963;50.934;4.668;2022-11-15T09:02:28;3.23;;;2.20;;
21601;SDS011;10963;50.934;4.668;2022-11-15T09:04:55;7.83;;;2.17;;
21601;SDS011;10963;50.934;4.668;2022-11-15T09:07:20;5.53;;;2.40;;
21601;SDS011;10963;50.934;4.668;2022-11-15T09:09:46;7.90;;;2.20;;
21601;SDS011;10963;50.934;4.668;2022-11-15T09:12:14;3.97;;;2.37;;
21601;SDS011;10963;50.934;4.668;2022-11-15T09:14:42;6.10;;;2.40;;
21601;SDS011;10963;50.934;4.668;2022-11-15T09:17:12;3.40;;;2.10;;
21601;SDS011;10963;50.934;4.668;2022-11-15T09:19:38;10.30;;;2.13;;
21601;SDS011;10963;50.934;4.668;2022-11-15T09:22:07;7.67;;;2.20;;
21601;SDS011;10963;50.934;4.668;2022-11-15T09:24:35;10.37;;;2.33;;
21601;SDS011;10963;50.934;4.668;2022-11-15T09:27:03;5.37;;;1.67;;
21601;SDS011;10963;50.934;4.668;2022-11-15T09:29:29;3.40;;;1.90;;
21601;SDS011;10963;50.934;4.668;2022-11-15T09:31:55;4.30;;;1.83;;
21601;SDS011;10963;50.934;4.668;2022-11-15T09:34:23;4.40;;;2.03;;
21601;SDS011;10963;50.934;4.668;2022-11-15T09:36:48;2.27;;;1.97;;
21601;SDS011;10963;50.934;4.668;2022-11-15T09:39:19;4.83;;;1.93;;
21601;SDS011;10963;50.934;4.668;2022-11-15T09:42:09;7.10;;;1.67;;
21601;SDS011;10963;50.934;4.668;2022-11-15T09:50:14;4.70;;;1.93;;
21601;SDS011;10963;50.934;4.668;2022-11-15T09:52:43;4.40;;;1.80;;
21601;SDS011;10963;50.934;4.668;2022-11-15T09:55:10;4.77;;;1.80;;
21601;SDS011;10963;50.934;4.668;2022-11-15T10:00:44;5.03;;;1.53;;
21601;SDS011;10963;50.934;4.668;2022-11-15T10:05:45;4.80;;;1.60;;
21601;SDS011;10963;50.934;4.668;2022-11-15T10:10:48;5.63;;;1.27;;
21601;SDS011;10963;50.934;4.668;2022-11-15T10:14:05;3.57;;;1.30;;
21601;SDS011;10963;50.934;4.668;2022-11-15T10:24:35;3.60;;;1.33;;
21601;SDS011;10963;50.934;4.668;2022-11-15T10:27:12;8.13;;;1.70;;
21601;SDS011;10963;50.934;4.668;2022-11-15T10:29:46;4.17;;;1.30;;
21601;SDS011;10963;50.934;4.668;2022-11-15T10:32:14;4.30;;;1.33;;
21601;SDS011;10963;50.934;4.668;2022-11-15T10:34:42;5.53;;;1.53;;
21601;SDS011;10963;50.934;4.668;2022-11-15T10:37:08;4.87;;;1.60;;
21601;SDS011;10963;50.934;4.668;2022-11-15T10:39:37;8.57;;;1.77;;
21601;SDS011;10963;50.934;4.668;2022-11-15T10:42:48;5.07;;;1.77;;
21601;SDS011;10963;50.934;4.668;2022-11-15T10:44:53;4.67;;;1.80;;
21601;SDS011;10963;50.934;4.668;2022-11-15T10:47:23;3.97;;;1.40;;
21601;SDS011;10963;50.934;4.668;2022-11-15T10:50:00;2.40;;;1.20;;
21601;SDS011;10963;50.934;4.668;2022-11-15T10:52:49;10.83;;;1.97;;
21601;SDS011;10963;50.934;4.668;2022-11-15T10:57:48;4.83;;;1.60;;
21601;SDS011;10963;50.934;4.668;2022-11-15T11:00:29;3.37;;;1.37;;
21601;SDS011;10963;50.934;4.668;2022-11-15T11:05:27;5.43;;;1.30;;
21601;SDS011;10963;50.934;4.668;2022-11-15T11:08:09;7.27;;;1.60;;
21601;SDS011;10963;50.934;4.668;2022-11-15T11:10:53;3.73;;;1.30;;
21601;SDS011;10963;50.934;4.668;2022-11-15T11:29:56;7.67;;;1.80;;
21601;SDS011;10963;50.934;4.668;2022-11-15T11:34:58;3.40;;;1.73;;
21601;SDS011;10963;50.934;4.668;2022-11-15T11:37:50;3.73;;;1.23;;
21601;SDS011;10963;50.934;4.668;2022-11-15T11:40:28;4.23;;;1.40;;
21601;SDS011;10963;50.934;4.668;2022-11-15T11:45:58;4.97;;;1.70;;
21601;SDS011;10963;50.934;4.668;2022-11-15T11:48:45;5.97;;;1.30;;
21601;SDS011;10963;50.934;4.668;2022-11-15T11:53:58;3.47;;;1.40;;
21601;SDS011;10963;50.934;4.668;2022-11-15T11:56:36;3.30;;;1.50;;
21601;SDS011;10963;50.934;4.668;2022-11-15T11:59:10;6.70;;;2.20;;
21601;SDS011;10963;50.934;4.668;2022-11-15T12:02:02;1.77;;;1.07;;
21601;SDS011;10963;50.934;4.668;2022-11-15T12:04:41;5.23;;;1.43;;
21601;SDS011;10963;50.934;4.668;2022-11-15T12:07:20;4.23;;;1.30;;
21601;SDS011;10963;50.934;4.668;2022-11-15T12:10:03;4.80;;;1.30;;
21601;SDS011;10963;50.934;4.668;2022-11-15T12:16:21;6.07;;;1.67;;
21601;SDS011;10963;50.934;4.668;2022-11-15T12:18:53;4.57;;;1.77;;
21601;SDS011;10963;50.934;4.668;2022-11-15T12:27:05;7.47;;;1.30;;
21601;SDS011;10963;50.934;4.668;2022-11-15T12:29:51;7.60;;;1.67;;
21601;SDS011;10963;50.934;4.668;2022-11-15T12:32:26;4.80;;;1.60;;
21601;SDS011;10963;50.934;4.668;2022-11-15T12:34:54;3.43;;;1.40;;
21601;SDS011;10963;50.934;4.668;2022-11-15T12:40:24;3.13;;;1.20;;
21601;SDS011;10963;50.934;4.668;2022-11-15T12:45:39;6.23;;;1.30;;
21601;SDS011;10963;50.934;4.668;2022-11-15T13:12:00;4.70;;;1.37;;
21601;SDS011;10963;50.934;4.668;2022-11-15T13:14:50;2.77;;;1.30;;
21601;SDS011;10963;50.934;4.668;2022-11-15T13:19:47;5.00;;;1.50;;
21601;SDS011;10963;50.934;4.668;2022-11-15T13:22:18;7.55;;;1.77;;
21601;SDS011;10963;50.934;4.668;2022-11-15T13:25:03;2.03;;;1.20;;
21601;SDS011;10963;50.934;4.668;2022-11-15T13:27:40;2.07;;;1.10;;
21601;SDS011;10963;50.934;4.668;2022-11-15T13:30:15;4.73;;;1.50;;
21601;SDS011;10963;50.934;4.668;2022-11-15T13:32:49;4.23;;;1.60;;
21601;SDS011;10963;50.934;4.668;2022-11-15T13:35:20;2.63;;;1.63;;
21601;SDS011;10963;50.934;4.668;2022-11-15T13:37:50;3.97;;;1.53;;
21601;SDS011;10963;50.934;4.668;2022-11-15T13:42:58;4.60;;;1.30;;
21601;SDS011;10963;50.934;4.668;2022-11-15T13:45:26;3.60;;;1.57;;
21601;SDS011;10963;50.934;4.668;2022-11-15T13:47:55;3.53;;;1.63;;
21601;SDS011;10963;50.934;4.668;2022-11-15T13:50:25;4.23;;;1.73;;
21601;SDS011;10963;50.934;4.668;2022-11-15T13:52:55;1.83;;;1.33;;
21601;SDS011;10963;50.934;4.668;2022-11-15T13:55:26;4.37;;;1.70;;
21601;SDS011;10963;50.934;4.668;2022-11-15T13:57:58;3.27;;;1.70;;
21601;SDS011;10963;50.934;4.668;2022-11-15T14:00:38;4.10;;;1.33;;
21601;SDS011;10963;50.934;4.668;2022-11-15T14:08:37;4.80;;;1.60;;
21601;SDS011;10963;50.934;4.668;2022-11-15T14:13:38;5.30;;;1.70;;
21601;SDS011;10963;50.934;4.668;2022-11-15T14:16:20;2.77;;;1.50;;
21601;SDS011;10963;50.934;4.668;2022-11-15T14:18:50;3.10;;;1.52;;
21601;SDS011;10963;50.934;4.668;2022-11-15T14:21:18;2.10;;;1.40;;
21601;SDS011;10963;50.934;4.668;2022-11-15T14:23:47;4.77;;;1.33;;
21601;SDS011;10963;50.934;4.668;2022-11-15T14:29:21;3.70;;;2.00;;
21601;SDS011;10963;50.934;4.668;2022-11-15T14:31:47;3.47;;;1.40;;
21601;SDS011;10963;50.934;4.668;2022-11-15T14:34:12;3.30;;;1.60;;
21601;SDS011;10963;50.934;4.668;2022-11-15T14:36:38;3.93;;;1.40;;
21601;SDS011;10963;50.934;4.668;2022-11-15T14:39:06;8.83;;;1.70;;
21601;SDS011;10963;50.934;4.668;2022-11-15T14:41:34;5.43;;;1.63;;
21601;SDS011;10963;50.934;4.668;2022-11-15T14:44:03;5.33;;;1.60;;
21601;SDS011;10963;50.934;4.668;2022-11-15T14:46:30;6.20;;;1.70;;
21601;SDS011;10963;50.934;4.668;2022-11-15T14:48:55;2.30;;;1.80;;
21601;SDS011;10963;50.934;4.668;2022-11-15T14:51:21;3.00;;;1.80;;
21601;SDS011;10963;50.934;4.668;2022-11-15T14:53:50;2.57;;;1.43;;
21601;SDS011;10963;50.934;4.668;2022-11-15T14:56:22;3.27;;;1.50;;
21601;SDS011;10963;50.934;4.668;2022-11-15T14:58:48;4.40;;;1.80;;
21601;SDS011;10963;50.934;4.668;2022-11-15T15:01:20;2.97;;;1.73;;
21601;SDS011;10963;50.934;4.668;2022-11-15T15:03:49;6.90;;;2.07;;
21601;SDS011;10963;50.934;4.668;2022-11-15T15:06:17;2.73;;;1.80;;
21601;SDS011;10963;50.934;4.668;2022-11-15T15:08:46;3.20;;;2.20;;
21601;SDS011;10963;50.934;4.668;2022-11-15T15:11:22;4.07;;;2.30;;
21601;SDS011;10963;50.934;4.668;2022-11-15T15:13:52;1.47;;;1.37;;
21601;SDS011;10963;50.934;4.668;2022-11-15T15:16:20;5.80;;;1.80;;
21601;SDS011;10963;50.934;4.668;2022-11-15T15:18:48;3.83;;;1.70;;
21601;SDS011;10963;50.934;4.668;2022-11-15T15:21:27;3.23;;;1.67;;
21601;SDS011;10963;50.934;4.668;2022-11-15T15:23:53;5.40;;;1.83;;
21601;SDS011;10963;50.934;4.668;2022-11-15T15:26:20;2.43;;;1.57;;
21601;SDS011;10963;50.934;4.668;2022-11-15T15:28:49;3.90;;;1.60;;
21601;SDS011;10963;50.934;4.668;2022-11-15T15:31:17;4.37;;;1.87;;
21601;SDS011;10963;50.934;4.668;2022-11-15T15:33:43;3.23;;;1.60;;
21601;SDS011;10963;50.934;4.668;2022-11-15T15:36:11;5.33;;;2.33;;
21601;SDS011;10963;50.934;4.668;2022-11-15T15:38:42;2.70;;;1.80;;
21601;SDS011;10963;50.934;4.668;2022-11-15T15:41:09;2.60;;;1.93;;
21601;SDS011;10963;50.934;4.668;2022-11-15T15:43:38;6.43;;;2.43;;
21601;SDS011;10963;50.934;4.668;2022-11-15T15:46:16;5.93;;;2.20;;
21601;SDS011;10963;50.934;4.668;2022-11-15T15:48:46;4.83;;;2.60;;
21601;SDS011;10963;50.934;4.668;2022-11-15T15:51:15;6.33;;;1.90;;
21601;SDS011;10963;50.934;4.668;2022-11-15T15:53:43;3.03;;;1.80;;
21601;SDS011;10963;50.934;4.668;2022-11-15T15:56:08;3.87;;;2.37;;
21601;SDS011;10963;50.934;4.668;2022-11-15T15:58:36;5.33;;;3.00;;
21601;SDS011;10963;50.934;4.668;2022-11-15T16:01:07;4.13;;;2.60;;
21601;SDS011;10963;50.934;4.668;2022-11-15T16:03:33;4.10;;;2.47;;
21601;SDS011;10963;50.934;4.668;2022-11-15T16:06:02;7.23;;;4.57;;
21601;SDS011;10963;50.934;4.668;2022-11-15T16:08:29;7.13;;;4.17;;
21601;SDS011;10963;50.934;4.668;2022-11-15T16:10:55;3.97;;;3.20;;
21601;SDS011;10963;50.934;4.668;2022-11-15T16:13:21;7.53;;;6.77;;
21601;SDS011;10963;50.934;4.668;2022-11-15T16:15:50;9.53;;;7.93;;
21601;SDS011;10963;50.934;4.668;2022-11-15T16:18:22;9.93;;;6.47;;
21601;SDS011;10963;50.934;4.668;2022-11-15T16:20:49;4.37;;;3.43;;
21601;SDS011;10963;50.934;4.668;2022-11-15T16:23:21;14.80;;;10.57;;
21601;SDS011;10963;50.934;4.668;2022-11-15T16:25:55;16.33;;;11.20;;
21601;SDS011;10963;50.934;4.668;2022-11-15T16:31:11;11.43;;;9.07;;
21601;SDS011;10963;50.934;4.668;2022-11-15T16:33:43;5.33;;;3.23;;
21601;SDS011;10963;50.934;4.668;2022-11-15T16:36:17;7.37;;;5.33;;
21601;SDS011;10963;50.934;4.668;2022-11-15T16:38:48;11.40;;;8.47;;
21601;SDS011;10963;50.934;4.668;2022-11-15T16:41:17;16.83;;;8.40;;
21601;SDS011;10963;50.934;4.668;2022-11-15T16:43:53;22.13;;;13.20;;
21601;SDS011;10963;50.934;4.668;2022-11-15T16:46:23;22.10;;;12.80;;
21601;SDS011;10963;50.934;4.668;2022-11-15T16:48:50;9.60;;;5.93;;
21601;SDS011;10963;50.934;4.668;2022-11-15T16:51:16;6.67;;;5.03;;
21601;SDS011;10963;50.934;4.668;2022-11-15T16:53:42;23.37;;;17.20;;
21601;SDS011;10963;50.934;4.668;2022-11-15T16:56:27;21.30;;;16.00;;
21601;SDS011;10963;50.934;4.668;2022-11-15T16:58:55;8.33;;;6.20;;
21601;SDS011;10963;50.934;4.668;2022-11-15T17:01:28;7.33;;;5.90;;
21601;SDS011;10963;50.934;4.668;2022-11-15T17:03:56;8.90;;;5.00;;
21601;SDS011;10963;50.934;4.668;2022-11-15T17:06:36;7.93;;;5.27;;
21601;SDS011;10963;50.934;4.668;2022-11-15T17:09:04;10.33;;;8.27;;
21601;SDS011;10963;50.934;4.668;2022-11-15T17:11:40;12.57;;;9.37;;
21601;SDS011;10963;50.934;4.668;2022-11-15T17:14:06;6.27;;;4.43;;
21601;SDS011;10963;50.934;4.668;2022-11-15T17:16:34;6.40;;;3.97;;